Etusivu
METAR-TAF:

METAR-TAF

Lentoasemat :

Pajala, Ruotsi

Pajala-Ylläksen lentoasema

Leveyspiiri: 67-14-44N, Pituuspiiri: 023-04-08E, korkeus merenpinnasta: 165 m

Tämänhetkinen sää

Tämä raportti tehtiin 38 minuuttia sitten, kello 04.20 UTC
Tuuli 8 kn pohjoisen/luoteesta, vaihdellen luoteen ja pohjoisen/koillisen välillä
Lämpötila 5°C
Kosteus 70%
Ilmanpaine 1012 hPa
Näkyvyys 10 km tai enemmän

METAR: ESUP 230420Z AUTO 33008KT 310V020 9999 NCD 05/M00 Q1012

Aika: 06:58 (04:58 UTC)


TAF: puuttuu

Säähavainnot ja -ennusteet yli 4000 lentoasemalta (METAR- ja TAF-raportit).

Käytössä olevat sääasemat on merkitty karttaan keltaisilla ja punaisilla pisteillä.

Aseta hiiri pisteen päälle nähdäksesi sääaseman nimen.

Klikkaa sitten nähdäksesi säähavainnot ja -ennusteet.

Kartan vaihtaminen: klikkaa mustalla rastilla varustettuja vihreitä pisteitä, niin voit zoomata sisään; viivalla varustettua vihreää pistettä, niin voit zoomata ulos tai vihreitä nuolia, niin pääset viereisille kartoille.


METAR-TAF: